sensor_id;sensor_type;location;lat;lon;timestamp;temperature;humidity
31675;DHT22;18276;45.520;11.018;2022-11-18T00:03:37;12.20;99.90
31675;DHT22;18276;45.520;11.018;2022-11-18T00:06:05;12.20;99.90
31675;DHT22;18276;45.520;11.018;2022-11-18T00:08:33;12.20;99.90
31675;DHT22;18276;45.520;11.018;2022-11-18T00:11:11;12.20;99.90
31675;DHT22;18276;45.520;11.018;2022-11-18T00:13:38;12.10;99.90
31675;DHT22;18276;45.520;11.018;2022-11-18T00:16:24;12.10;99.90
31675;DHT22;18276;45.520;11.018;2022-11-18T00:18:51;12.00;99.90
31675;DHT22;18276;45.520;11.018;2022-11-18T00:21:18;12.00;99.90
31675;DHT22;18276;45.520;11.018;2022-11-18T00:23:47;12.00;99.90
31675;DHT22;18276;45.520;11.018;2022-11-18T00:26:14;11.90;99.90
31675;DHT22;18276;45.520;11.018;2022-11-18T00:28:41;12.00;99.90
31675;DHT22;18276;45.520;11.018;2022-11-18T00:31:12;12.00;99.90
31675;DHT22;18276;45.520;11.018;2022-11-18T00:33:40;12.00;99.90
31675;DHT22;18276;45.520;11.018;2022-11-18T00:36:09;12.00;99.90
31675;DHT22;18276;45.520;11.018;2022-11-18T00:38:38;12.00;99.90
31675;DHT22;18276;45.520;11.018;2022-11-18T00:41:07;11.90;99.90
31675;DHT22;18276;45.520;11.018;2022-11-18T00:43:35;11.90;99.90
31675;DHT22;18276;45.520;11.018;2022-11-18T00:46:03;12.00;99.90
31675;DHT22;18276;45.520;11.018;2022-11-18T00:48:30;12.00;99.90
31675;DHT22;18276;45.520;11.018;2022-11-18T00:51:04;12.00;99.90
31675;DHT22;18276;45.520;11.018;2022-11-18T00:53:31;12.10;99.90
31675;DHT22;18276;45.520;11.018;2022-11-18T00:55:58;12.10;99.90
31675;DHT22;18276;45.520;11.018;2022-11-18T00:58:25;12.10;99.90
31675;DHT22;18276;45.520;11.018;2022-11-18T01:00:52;12.10;99.90
31675;DHT22;18276;45.520;11.018;2022-11-18T01:03:20;12.20;99.90
31675;DHT22;18276;45.520;11.018;2022-11-18T01:05:47;12.10;99.90
31675;DHT22;18276;45.520;11.018;2022-11-18T01:08:14;12.10;99.90
31675;DHT22;18276;45.520;11.018;2022-11-18T01:10:41;12.10;99.90
31675;DHT22;18276;45.520;11.018;2022-11-18T01:13:13;12.20;99.90
31675;DHT22;18276;45.520;11.018;2022-11-18T01:15:54;12.20;99.90
31675;DHT22;18276;45.520;11.018;2022-11-18T01:18:24;12.20;99.90
31675;DHT22;18276;45.520;11.018;2022-11-18T01:20:51;12.20;99.90
31675;DHT22;18276;45.520;11.018;2022-11-18T01:23:19;12.20;99.90
31675;DHT22;18276;45.520;11.018;2022-11-18T01:25:48;12.20;99.90
31675;DHT22;18276;45.520;11.018;2022-11-18T01:28:17;12.30;99.90
31675;DHT22;18276;45.520;11.018;2022-11-18T01:30:50;12.30;99.90
31675;DHT22;18276;45.520;11.018;2022-11-18T01:33:17;12.30;99.90
31675;DHT22;18276;45.520;11.018;2022-11-18T01:35:44;12.30;99.90
31675;DHT22;18276;45.520;11.018;2022-11-18T01:38:12;12.30;99.90
31675;DHT22;18276;45.520;11.018;2022-11-18T01:40:41;12.30;99.90
31675;DHT22;18276;45.520;11.018;2022-11-18T01:43:16;12.30;99.90
31675;DHT22;18276;45.520;11.018;2022-11-18T01:45:46;12.30;99.90
31675;DHT22;18276;45.520;11.018;2022-11-18T01:48:30;12.30;99.90
31675;DHT22;18276;45.520;11.018;2022-11-18T01:51:01;12.30;99.90
31675;DHT22;18276;45.520;11.018;2022-11-18T01:53:42;12.30;99.90
31675;DHT22;18276;45.520;11.018;2022-11-18T01:56:14;12.30;99.90
31675;DHT22;18276;45.520;11.018;2022-11-18T02:01:12;12.30;99.90
31675;DHT22;18276;45.520;11.018;2022-11-18T02:03:40;12.30;99.90
31675;DHT22;18276;45.520;11.018;2022-11-18T02:06:08;12.30;99.90
31675;DHT22;18276;45.520;11.018;2022-11-18T02:08:36;12.30;99.90
31675;DHT22;18276;45.520;11.018;2022-11-18T02:11:09;12.30;99.90
31675;DHT22;18276;45.520;11.018;2022-11-18T02:13:58;12.30;99.90
31675;DHT22;18276;45.520;11.018;2022-11-18T02:30:22;12.10;99.90
31675;DHT22;18276;45.520;11.018;2022-11-18T02:33:03;12.10;99.90
31675;DHT22;18276;45.520;11.018;2022-11-18T02:35:39;12.10;99.90
31675;DHT22;18276;45.520;11.018;2022-11-18T02:38:11;12.10;99.90
31675;DHT22;18276;45.520;11.018;2022-11-18T02:40:43;12.10;99.90
31675;DHT22;18276;45.520;11.018;2022-11-18T02:43:26;12.00;99.90
31675;DHT22;18276;45.520;11.018;2022-11-18T02:45:57;12.00;99.90
31675;DHT22;18276;45.520;11.018;2022-11-18T02:48:29;12.00;99.90
31675;DHT22;18276;45.520;11.018;2022-11-18T02:50:57;12.00;99.90
31675;DHT22;18276;45.520;11.018;2022-11-18T02:53:28;12.00;99.90
31675;DHT22;18276;45.520;11.018;2022-11-18T02:55:57;12.00;99.90
31675;DHT22;18276;45.520;11.018;2022-11-18T02:58:25;11.90;99.90
31675;DHT22;18276;45.520;11.018;2022-11-18T03:00:57;11.90;99.90
31675;DHT22;18276;45.520;11.018;2022-11-18T03:03:33;12.00;99.90
31675;DHT22;18276;45.520;11.018;2022-11-18T03:11:38;12.00;99.90
31675;DHT22;18276;45.520;11.018;2022-11-18T03:17:08;12.00;99.90
31675;DHT22;18276;45.520;11.018;2022-11-18T03:22:35;12.00;99.90
31675;DHT22;18276;45.520;11.018;2022-11-18T03:25:22;12.00;99.90
31675;DHT22;18276;45.520;11.018;2022-11-18T03:30:41;11.90;99.90
31675;DHT22;18276;45.520;11.018;2022-11-18T03:33:13;11.90;99.90
31675;DHT22;18276;45.520;11.018;2022-11-18T03:35:45;11.90;99.90
31675;DHT22;18276;45.520;11.018;2022-11-18T03:38:23;11.80;99.90
31675;DHT22;18276;45.520;11.018;2022-11-18T03:40:56;11.80;99.90
31675;DHT22;18276;45.520;11.018;2022-11-18T03:43:26;11.90;99.90
31675;DHT22;18276;45.520;11.018;2022-11-18T03:48:48;12.00;99.90
31675;DHT22;18276;45.520;11.018;2022-11-18T03:51:21;12.00;99.90
31675;DHT22;18276;45.520;11.018;2022-11-18T03:53:56;12.10;99.90
31675;DHT22;18276;45.520;11.018;2022-11-18T03:56:29;12.10;99.90
31675;DHT22;18276;45.520;11.018;2022-11-18T03:59:37;12.20;99.90
31675;DHT22;18276;45.520;11.018;2022-11-18T04:02:38;12.20;99.90
31675;DHT22;18276;45.520;11.018;2022-11-18T04:05:08;12.20;99.90
31675;DHT22;18276;45.520;11.018;2022-11-18T04:07:47;12.20;99.90
31675;DHT22;18276;45.520;11.018;2022-11-18T04:10:17;12.20;99.90
31675;DHT22;18276;45.520;11.018;2022-11-18T04:13:17;12.10;99.90
31675;DHT22;18276;45.520;11.018;2022-11-18T04:15:41;12.10;99.90
31675;DHT22;18276;45.520;11.018;2022-11-18T04:18:09;12.10;99.90
31675;DHT22;18276;45.520;11.018;2022-11-18T04:20:37;12.10;99.90
31675;DHT22;18276;45.520;11.018;2022-11-18T04:23:05;12.10;99.90
31675;DHT22;18276;45.520;11.018;2022-11-18T04:25:33;12.20;99.90
31675;DHT22;18276;45.520;11.018;2022-11-18T04:28:00;12.20;99.90
31675;DHT22;18276;45.520;11.018;2022-11-18T04:30:27;12.20;99.90
31675;DHT22;18276;45.520;11.018;2022-11-18T04:32:54;12.20;99.90
31675;DHT22;18276;45.520;11.018;2022-11-18T04:35:21;12.20;99.90
31675;DHT22;18276;45.520;11.018;2022-11-18T04:37:48;12.20;99.90
31675;DHT22;18276;45.520;11.018;2022-11-18T04:40:15;12.20;99.90
31675;DHT22;18276;45.520;11.018;2022-11-18T04:42:43;12.20;99.90
31675;DHT22;18276;45.520;11.018;2022-11-18T04:45:10;12.20;99.90
31675;DHT22;18276;45.520;11.018;2022-11-18T04:47:37;12.10;99.90
31675;DHT22;18276;45.520;11.018;2022-11-18T04:50:05;12.20;99.90
31675;DHT22;18276;45.520;11.018;2022-11-18T04:52:32;12.20;99.90
31675;DHT22;18276;45.520;11.018;2022-11-18T04:54:59;12.20;99.90
31675;DHT22;18276;45.520;11.018;2022-11-18T04:57:26;12.20;99.90
31675;DHT22;18276;45.520;11.018;2022-11-18T04:59:53;12.20;99.90
31675;DHT22;18276;45.520;11.018;2022-11-18T05:02:20;12.20;99.90
31675;DHT22;18276;45.520;11.018;2022-11-18T05:04:47;12.20;99.90
31675;DHT22;18276;45.520;11.018;2022-11-18T05:07:14;12.20;99.90
31675;DHT22;18276;45.520;11.018;2022-11-18T05:09:42;12.20;99.90
31675;DHT22;18276;45.520;11.018;2022-11-18T05:12:13;12.20;99.90
31675;DHT22;18276;45.520;11.018;2022-11-18T05:14:59;12.20;99.90
31675;DHT22;18276;45.520;11.018;2022-11-18T05:17:26;12.10;99.90
31675;DHT22;18276;45.520;11.018;2022-11-18T05:19:53;12.10;99.90
31675;DHT22;18276;45.520;11.018;2022-11-18T05:22:20;12.00;99.90
31675;DHT22;18276;45.520;11.018;2022-11-18T05:24:48;12.10;99.90
31675;DHT22;18276;45.520;11.018;2022-11-18T05:27:15;12.00;99.90
31675;DHT22;18276;45.520;11.018;2022-11-18T05:29:42;12.10;99.90
31675;DHT22;18276;45.520;11.018;2022-11-18T05:32:09;12.10;99.90
31675;DHT22;18276;45.520;11.018;2022-11-18T05:34:36;12.10;99.90
31675;DHT22;18276;45.520;11.018;2022-11-18T05:37:03;12.10;99.90
31675;DHT22;18276;45.520;11.018;2022-11-18T05:39:31;12.10;99.90
31675;DHT22;18276;45.520;11.018;2022-11-18T05:41:59;12.10;99.90
31675;DHT22;18276;45.520;11.018;2022-11-18T05:44:45;12.10;99.90
31675;DHT22;18276;45.520;11.018;2022-11-18T05:47:12;12.10;99.90
31675;DHT22;18276;45.520;11.018;2022-11-18T05:49:39;12.10;99.90
31675;DHT22;18276;45.520;11.018;2022-11-18T05:52:06;12.10;99.90
31675;DHT22;18276;45.520;11.018;2022-11-18T05:54:33;12.10;99.90
31675;DHT22;18276;45.520;11.018;2022-11-18T05:57:00;12.00;99.90
31675;DHT22;18276;45.520;11.018;2022-11-18T05:59:27;11.90;99.90
31675;DHT22;18276;45.520;11.018;2022-11-18T06:02:31;11.90;99.90
31675;DHT22;18276;45.520;11.018;2022-11-18T06:04:58;11.90;99.90
31675;DHT22;18276;45.520;11.018;2022-11-18T06:07:41;11.90;99.90
31675;DHT22;18276;45.520;11.018;2022-11-18T06:10:21;11.90;99.90
31675;DHT22;18276;45.520;11.018;2022-11-18T06:12:52;11.90;99.90
31675;DHT22;18276;45.520;11.018;2022-11-18T06:15:24;11.90;99.90
31675;DHT22;18276;45.520;11.018;2022-11-18T06:18:02;11.90;99.90
31675;DHT22;18276;45.520;11.018;2022-11-18T06:20:32;11.90;99.90
31675;DHT22;18276;45.520;11.018;2022-11-18T06:23:00;11.90;99.90
31675;DHT22;18276;45.520;11.018;2022-11-18T06:25:28;11.90;99.90
31675;DHT22;18276;45.520;11.018;2022-11-18T06:27:56;11.90;99.90
31675;DHT22;18276;45.520;11.018;2022-11-18T06:30:25;11.90;99.90
31675;DHT22;18276;45.520;11.018;2022-11-18T06:32:51;11.90;99.90
31675;DHT22;18276;45.520;11.018;2022-11-18T06:35:18;11.90;99.90
31675;DHT22;18276;45.520;11.018;2022-11-18T06:37:46;11.90;99.90
31675;DHT22;18276;45.520;11.018;2022-11-18T06:40:13;12.00;99.90
31675;DHT22;18276;45.520;11.018;2022-11-18T06:42:40;12.00;99.90
31675;DHT22;18276;45.520;11.018;2022-11-18T06:45:25;12.00;99.90
31675;DHT22;18276;45.520;11.018;2022-11-18T06:47:58;12.00;99.90
31675;DHT22;18276;45.520;11.018;2022-11-18T06:50:27;12.00;99.90
31675;DHT22;18276;45.520;11.018;2022-11-18T06:52:54;12.10;99.90
31675;DHT22;18276;45.520;11.018;2022-11-18T06:55:21;12.10;99.90
31675;DHT22;18276;45.520;11.018;2022-11-18T06:57:48;12.10;99.90
31675;DHT22;18276;45.520;11.018;2022-11-18T07:00:15;12.10;99.90
31675;DHT22;18276;45.520;11.018;2022-11-18T07:02:42;12.20;99.90
31675;DHT22;18276;45.520;11.018;2022-11-18T07:05:10;12.20;99.90
31675;DHT22;18276;45.520;11.018;2022-11-18T07:07:37;12.20;99.90
31675;DHT22;18276;45.520;11.018;2022-11-18T07:10:08;12.30;99.90
31675;DHT22;18276;45.520;11.018;2022-11-18T07:12:35;12.30;99.90
31675;DHT22;18276;45.520;11.018;2022-11-18T07:15:03;12.30;99.90
31675;DHT22;18276;45.520;11.018;2022-11-18T07:17:31;12.40;99.90
31675;DHT22;18276;45.520;11.018;2022-11-18T07:19:58;12.40;99.90
31675;DHT22;18276;45.520;11.018;2022-11-18T07:22:24;12.50;99.90
31675;DHT22;18276;45.520;11.018;2022-11-18T07:24:51;12.50;99.90
31675;DHT22;18276;45.520;11.018;2022-11-18T07:27:18;12.60;99.90
31675;DHT22;18276;45.520;11.018;2022-11-18T07:29:45;12.60;99.90
31675;DHT22;18276;45.520;11.018;2022-11-18T07:32:13;12.70;99.90
31675;DHT22;18276;45.520;11.018;2022-11-18T07:34:40;12.70;99.90
31675;DHT22;18276;45.520;11.018;2022-11-18T07:37:07;12.80;99.90
31675;DHT22;18276;45.520;11.018;2022-11-18T07:39:34;12.80;99.90
31675;DHT22;18276;45.520;11.018;2022-11-18T07:42:01;12.80;99.90
31675;DHT22;18276;45.520;11.018;2022-11-18T07:44:28;12.80;99.90
31675;DHT22;18276;45.520;11.018;2022-11-18T07:46:55;12.70;99.90
31675;DHT22;18276;45.520;11.018;2022-11-18T07:49:22;12.80;99.90
31675;DHT22;18276;45.520;11.018;2022-11-18T07:51:49;12.80;99.90
31675;DHT22;18276;45.520;11.018;2022-11-18T07:54:16;12.80;99.90
31675;DHT22;18276;45.520;11.018;2022-11-18T07:56:44;12.90;99.90
31675;DHT22;18276;45.520;11.018;2022-11-18T07:59:11;13.00;99.90
31675;DHT22;18276;45.520;11.018;2022-11-18T08:01:40;13.20;99.90
31675;DHT22;18276;45.520;11.018;2022-11-18T08:04:09;13.80;99.90
31675;DHT22;18276;45.520;11.018;2022-11-18T08:06:39;14.50;99.90
31675;DHT22;18276;45.520;11.018;2022-11-18T08:09:07;15.30;99.90
31675;DHT22;18276;45.520;11.018;2022-11-18T08:11:34;16.20;99.90
31675;DHT22;18276;45.520;11.018;2022-11-18T08:14:02;17.10;99.90
31675;DHT22;18276;45.520;11.018;2022-11-18T08:16:33;17.70;99.90
31675;DHT22;18276;45.520;11.018;2022-11-18T08:19:00;18.10;97.70
31675;DHT22;18276;45.520;11.018;2022-11-18T08:21:27;18.40;95.50
31675;DHT22;18276;45.520;11.018;2022-11-18T08:23:56;18.60;93.30
31675;DHT22;18276;45.520;11.018;2022-11-18T08:26:24;18.60;91.50
31675;DHT22;18276;45.520;11.018;2022-11-18T08:28:51;18.50;90.60
31675;DHT22;18276;45.520;11.018;2022-11-18T08:31:28;18.30;90.10
31675;DHT22;18276;45.520;11.018;2022-11-18T08:34:02;17.80;90.00
31675;DHT22;18276;45.520;11.018;2022-11-18T08:36:32;17.40;90.60
31675;DHT22;18276;45.520;11.018;2022-11-18T08:39:00;17.00;91.60
31675;DHT22;18276;45.520;11.018;2022-11-18T08:41:33;16.70;91.70
31675;DHT22;18276;45.520;11.018;2022-11-18T08:44:01;16.30;92.60
31675;DHT22;18276;45.520;11.018;2022-11-18T08:46:28;16.10;93.50
31675;DHT22;18276;45.520;11.018;2022-11-18T08:48:56;15.80;94.40
31675;DHT22;18276;45.520;11.018;2022-11-18T08:51:24;15.60;95.30
31675;DHT22;18276;45.520;11.018;2022-11-18T08:53:51;15.40;96.40
31675;DHT22;18276;45.520;11.018;2022-11-18T08:56:19;15.30;97.00
31675;DHT22;18276;45.520;11.018;2022-11-18T08:58:47;15.10;97.30
31675;DHT22;18276;45.520;11.018;2022-11-18T09:01:14;14.80;98.30
31675;DHT22;18276;45.520;11.018;2022-11-18T09:03:41;14.60;99.80
31675;DHT22;18276;45.520;11.018;2022-11-18T09:06:14;14.60;99.90
31675;DHT22;18276;45.520;11.018;2022-11-18T09:08:41;14.40;99.90
31675;DHT22;18276;45.520;11.018;2022-11-18T09:11:14;14.50;99.90
31675;DHT22;18276;45.520;11.018;2022-11-18T09:13:41;14.70;99.90
31675;DHT22;18276;45.520;11.018;2022-11-18T09:16:31;14.90;99.90
31675;DHT22;18276;45.520;11.018;2022-11-18T09:18:58;15.20;99.90
31675;DHT22;18276;45.520;11.018;2022-11-18T09:21:46;15.60;99.90
31675;DHT22;18276;45.520;11.018;2022-11-18T09:24:13;16.20;99.90
31675;DHT22;18276;45.520;11.018;2022-11-18T09:26:40;16.50;98.70
31675;DHT22;18276;45.520;11.018;2022-11-18T09:29:07;16.60;96.90
31675;DHT22;18276;45.520;11.018;2022-11-18T09:31:34;16.80;96.50
31675;DHT22;18276;45.520;11.018;2022-11-18T09:34:01;17.40;95.00
31675;DHT22;18276;45.520;11.018;2022-11-18T09:36:28;18.40;93.60
31675;DHT22;18276;45.520;11.018;2022-11-18T09:38:55;19.50;90.40
31675;DHT22;18276;45.520;11.018;2022-11-18T09:49:30;18.70;79.20
31675;DHT22;18276;45.520;11.018;2022-11-18T09:52:01;18.00;81.50
31675;DHT22;18276;45.520;11.018;2022-11-18T09:54:36;17.90;84.10
31675;DHT22;18276;45.520;11.018;2022-11-18T09:57:12;18.40;83.00
31675;DHT22;18276;45.520;11.018;2022-11-18T09:59:41;18.80;82.00
31675;DHT22;18276;45.520;11.018;2022-11-18T10:03:19;20.00;78.80
31675;DHT22;18276;45.520;11.018;2022-11-18T10:05:22;20.50;74.40
31675;DHT22;18276;45.520;11.018;2022-11-18T10:08:21;19.90;75.00
31675;DHT22;18276;45.520;11.018;2022-11-18T10:19:17;18.70;80.20
31675;DHT22;18276;45.520;11.018;2022-11-18T10:22:29;18.80;79.10
31675;DHT22;18276;45.520;11.018;2022-11-18T10:24:56;18.60;79.00
31675;DHT22;18276;45.520;11.018;2022-11-18T10:27:32;18.10;80.40
31675;DHT22;18276;45.520;11.018;2022-11-18T10:30:00;18.90;82.00
31675;DHT22;18276;45.520;11.018;2022-11-18T10:32:28;19.90;78.80
31675;DHT22;18276;45.520;11.018;2022-11-18T10:34:57;20.00;77.00
31675;DHT22;18276;45.520;11.018;2022-11-18T10:37:34;20.30;77.10
31675;DHT22;18276;45.520;11.018;2022-11-18T10:40:25;22.00;73.30
31675;DHT22;18276;45.520;11.018;2022-11-18T10:42:53;23.00;70.30
31675;DHT22;18276;45.520;11.018;2022-11-18T10:48:06;24.90;62.20
31675;DHT22;18276;45.520;11.018;2022-11-18T10:56:04;25.40;58.70
31675;DHT22;18276;45.520;11.018;2022-11-18T10:58:34;25.70;56.80
31675;DHT22;18276;45.520;11.018;2022-11-18T11:01:21;25.40;56.70
31675;DHT22;18276;45.520;11.018;2022-11-18T11:04:17;25.20;58.00
31675;DHT22;18276;45.520;11.018;2022-11-18T11:06:46;25.40;56.90
31675;DHT22;18276;45.520;11.018;2022-11-18T11:11:42;23.80;58.10
31675;DHT22;18276;45.520;11.018;2022-11-18T11:14:30;23.00;60.30
31675;DHT22;18276;45.520;11.018;2022-11-18T11:17:11;23.50;60.90
31675;DHT22;18276;45.520;11.018;2022-11-18T11:22:15;25.20;57.10
31675;DHT22;18276;45.520;11.018;2022-11-18T11:24:43;25.00;56.00
31675;DHT22;18276;45.520;11.018;2022-11-18T11:30:11;25.20;55.30
31675;DHT22;18276;45.520;11.018;2022-11-18T11:35:32;25.60;53.20
31675;DHT22;18276;45.520;11.018;2022-11-18T11:40:56;25.40;54.10
31675;DHT22;18276;45.520;11.018;2022-11-18T11:43:58;25.20;53.40
31675;DHT22;18276;45.520;11.018;2022-11-18T11:51:42;23.50;56.70
31675;DHT22;18276;45.520;11.018;2022-11-18T11:56:56;21.50;61.00
31675;DHT22;18276;45.520;11.018;2022-11-18T11:59:36;21.10;63.10
31675;DHT22;18276;45.520;11.018;2022-11-18T12:02:23;20.50;64.00
31675;DHT22;18276;45.520;11.018;2022-11-18T12:07:59;20.60;67.00
31675;DHT22;18276;45.520;11.018;2022-11-18T12:10:31;21.40;65.00
31675;DHT22;18276;45.520;11.018;2022-11-18T12:20:55;21.60;62.00
31675;DHT22;18276;45.520;11.018;2022-11-18T12:23:24;21.20;63.70
31675;DHT22;18276;45.520;11.018;2022-11-18T12:28:31;20.40;65.30
31675;DHT22;18276;45.520;11.018;2022-11-18T12:34:03;20.50;67.60
31675;DHT22;18276;45.520;11.018;2022-11-18T12:36:37;21.60;66.00
31675;DHT22;18276;45.520;11.018;2022-11-18T12:44:45;24.20;58.20
31675;DHT22;18276;45.520;11.018;2022-11-18T12:50:13;24.60;56.30
31675;DHT22;18276;45.520;11.018;2022-11-18T12:55:23;24.60;56.10
31675;DHT22;18276;45.520;11.018;2022-11-18T12:57:51;24.60;55.10
31675;DHT22;18276;45.520;11.018;2022-11-18T13:00:29;25.00;55.50
31675;DHT22;18276;45.520;11.018;2022-11-18T13:02:59;25.30;54.10
31675;DHT22;18276;45.520;11.018;2022-11-18T13:05:31;25.50;53.70
31675;DHT22;18276;45.520;11.018;2022-11-18T13:08:12;25.60;53.90
31675;DHT22;18276;45.520;11.018;2022-11-18T13:13:32;26.10;52.60
31675;DHT22;18276;45.520;11.018;2022-11-18T13:16:20;26.20;52.70
31675;DHT22;18276;45.520;11.018;2022-11-18T13:19:06;26.00;52.10
31675;DHT22;18276;45.520;11.018;2022-11-18T13:21:33;25.80;51.90
31675;DHT22;18276;45.520;11.018;2022-11-18T13:24:20;25.60;51.70
31675;DHT22;18276;45.520;11.018;2022-11-18T13:26:53;25.60;52.50
31675;DHT22;18276;45.520;11.018;2022-11-18T13:32:20;25.60;52.20
31675;DHT22;18276;45.520;11.018;2022-11-18T13:37:54;25.20;52.20
31675;DHT22;18276;45.520;11.018;2022-11-18T13:40:37;24.70;53.30
31675;DHT22;18276;45.520;11.018;2022-11-18T13:43:04;24.10;54.00
31675;DHT22;18276;45.520;11.018;2022-11-18T13:45:32;23.70;55.20
31675;DHT22;18276;45.520;11.018;2022-11-18T13:48:06;23.40;55.70
31675;DHT22;18276;45.520;11.018;2022-11-18T13:50:37;23.00;56.30
31675;DHT22;18276;45.520;11.018;2022-11-18T13:56:14;22.40;58.00
31675;DHT22;18276;45.520;11.018;2022-11-18T13:58:43;22.20;58.80
31675;DHT22;18276;45.520;11.018;2022-11-18T14:01:32;22.20;59.00
31675;DHT22;18276;45.520;11.018;2022-11-18T14:06:35;22.00;59.80
31675;DHT22;18276;45.520;11.018;2022-11-18T14:11:45;22.20;60.40
31675;DHT22;18276;45.520;11.018;2022-11-18T14:14:37;22.30;60.00
31675;DHT22;18276;45.520;11.018;2022-11-18T14:19:47;22.30;60.80
31675;DHT22;18276;45.520;11.018;2022-11-18T14:22:21;22.20;61.00
31675;DHT22;18276;45.520;11.018;2022-11-18T14:24:56;21.80;61.00
31675;DHT22;18276;45.520;11.018;2022-11-18T14:27:39;21.20;62.10
31675;DHT22;18276;45.520;11.018;2022-11-18T14:33:12;19.50;66.40
31675;DHT22;18276;45.520;11.018;2022-11-18T14:36:26;18.70;68.80
31675;DHT22;18276;45.520;11.018;2022-11-18T14:41:11;17.50;72.70
31675;DHT22;18276;45.520;11.018;2022-11-18T14:43:39;17.00;74.60
31675;DHT22;18276;45.520;11.018;2022-11-18T14:46:17;16.60;75.40
31675;DHT22;18276;45.520;11.018;2022-11-18T14:48:45;16.40;76.80
31675;DHT22;18276;45.520;11.018;2022-11-18T14:51:15;16.20;77.60
31675;DHT22;18276;45.520;11.018;2022-11-18T14:53:43;16.10;78.70
31675;DHT22;18276;45.520;11.018;2022-11-18T14:56:26;15.90;79.00
31675;DHT22;18276;45.520;11.018;2022-11-18T14:58:53;15.70;80.00
31675;DHT22;18276;45.520;11.018;2022-11-18T15:01:20;15.50;80.30
31675;DHT22;18276;45.520;11.018;2022-11-18T15:03:53;15.40;80.80
31675;DHT22;18276;45.520;11.018;2022-11-18T15:06:21;15.40;81.30
31675;DHT22;18276;45.520;11.018;2022-11-18T15:08:49;15.30;82.10
31675;DHT22;18276;45.520;11.018;2022-11-18T15:11:17;15.10;82.60
31675;DHT22;18276;45.520;11.018;2022-11-18T15:13:48;15.00;83.30
31675;DHT22;18276;45.520;11.018;2022-11-18T15:16:20;14.90;84.00
31675;DHT22;18276;45.520;11.018;2022-11-18T15:18:50;14.70;84.90
31675;DHT22;18276;45.520;11.018;2022-11-18T15:21:18;14.60;85.60
31675;DHT22;18276;45.520;11.018;2022-11-18T15:23:45;14.50;86.40
31675;DHT22;18276;45.520;11.018;2022-11-18T15:26:16;14.30;87.00
31675;DHT22;18276;45.520;11.018;2022-11-18T15:28:49;14.20;88.50
31675;DHT22;18276;45.520;11.018;2022-11-18T15:31:17;14.00;89.30
31675;DHT22;18276;45.520;11.018;2022-11-18T15:33:44;13.90;90.10
31675;DHT22;18276;45.520;11.018;2022-11-18T15:36:19;13.80;90.50
31675;DHT22;18276;45.520;11.018;2022-11-18T15:38:47;13.70;90.90
31675;DHT22;18276;45.520;11.018;2022-11-18T15:41:20;13.60;91.30
31675;DHT22;18276;45.520;11.018;2022-11-18T15:43:48;13.50;91.90
31675;DHT22;18276;45.520;11.018;2022-11-18T15:46:17;13.40;92.40
31675;DHT22;18276;45.520;11.018;2022-11-18T15:48:49;13.30;93.10
31675;DHT22;18276;45.520;11.018;2022-11-18T15:51:17;13.30;93.80
31675;DHT22;18276;45.520;11.018;2022-11-18T15:53:44;13.10;94.40
31675;DHT22;18276;45.520;11.018;2022-11-18T15:56:14;13.10;95.00
31675;DHT22;18276;45.520;11.018;2022-11-18T15:58:41;13.00;95.80
31675;DHT22;18276;45.520;11.018;2022-11-18T16:01:08;12.90;96.60
31675;DHT22;18276;45.520;11.018;2022-11-18T16:03:36;12.80;97.60
31675;DHT22;18276;45.520;11.018;2022-11-18T16:06:03;12.70;98.70
31675;DHT22;18276;45.520;11.018;2022-11-18T16:08:30;12.60;99.90
31675;DHT22;18276;45.520;11.018;2022-11-18T16:10:57;12.50;99.90
31675;DHT22;18276;45.520;11.018;2022-11-18T16:13:43;12.40;99.90
31675;DHT22;18276;45.520;11.018;2022-11-18T16:16:20;12.30;99.90
31675;DHT22;18276;45.520;11.018;2022-11-18T16:18:48;12.30;99.90
31675;DHT22;18276;45.520;11.018;2022-11-18T16:21:15;12.20;99.90
31675;DHT22;18276;45.520;11.018;2022-11-18T16:23:42;12.10;99.90
31675;DHT22;18276;45.520;11.018;2022-11-18T16:26:09;12.00;99.90
31675;DHT22;18276;45.520;11.018;2022-11-18T16:28:36;12.00;99.90
31675;DHT22;18276;45.520;11.018;2022-11-18T16:31:02;11.90;99.90
31675;DHT22;18276;45.520;11.018;2022-11-18T16:33:48;11.90;99.90
31675;DHT22;18276;45.520;11.018;2022-11-18T16:36:15;11.80;99.90
31675;DHT22;18276;45.520;11.018;2022-11-18T16:38:42;11.80;99.90
31675;DHT22;18276;45.520;11.018;2022-11-18T16:41:09;11.80;99.90
31675;DHT22;18276;45.520;11.018;2022-11-18T16:43:55;11.80;99.90
31675;DHT22;18276;45.520;11.018;2022-11-18T16:46:25;11.80;99.90
31675;DHT22;18276;45.520;11.018;2022-11-18T16:48:52;11.80;99.90
31675;DHT22;18276;45.520;11.018;2022-11-18T16:51:23;11.80;99.90
31675;DHT22;18276;45.520;11.018;2022-11-18T16:54:17;11.80;99.90
31675;DHT22;18276;45.520;11.018;2022-11-18T16:56:46;11.80;99.90
31675;DHT22;18276;45.520;11.018;2022-11-18T16:59:19;11.70;99.90
31675;DHT22;18276;45.520;11.018;2022-11-18T17:01:50;11.70;99.90
31675;DHT22;18276;45.520;11.018;2022-11-18T17:04:19;11.70;99.90
31675;DHT22;18276;45.520;11.018;2022-11-18T17:06:46;11.70;99.90
31675;DHT22;18276;45.520;11.018;2022-11-18T17:09:16;11.60;99.90
31675;DHT22;18276;45.520;11.018;2022-11-18T17:11:44;11.60;99.90
31675;DHT22;18276;45.520;11.018;2022-11-18T17:14:11;11.60;99.90
31675;DHT22;18276;45.520;11.018;2022-11-18T17:16:38;11.60;99.90
31675;DHT22;18276;45.520;11.018;2022-11-18T17:19:06;11.60;99.90
31675;DHT22;18276;45.520;11.018;2022-11-18T17:21:38;11.50;99.90
31675;DHT22;18276;45.520;11.018;2022-11-18T17:24:05;11.50;99.90
31675;DHT22;18276;45.520;11.018;2022-11-18T17:26:32;11.50;99.90
31675;DHT22;18276;45.520;11.018;2022-11-18T17:28:59;11.40;99.90
31675;DHT22;18276;45.520;11.018;2022-11-18T17:31:26;11.40;99.90
31675;DHT22;18276;45.520;11.018;2022-11-18T17:33:54;11.30;99.90
31675;DHT22;18276;45.520;11.018;2022-11-18T17:36:23;11.30;99.90
31675;DHT22;18276;45.520;11.018;2022-11-18T17:38:53;11.30;99.90
31675;DHT22;18276;45.520;11.018;2022-11-18T17:41:23;11.20;99.90
31675;DHT22;18276;45.520;11.018;2022-11-18T17:44:10;11.20;99.90
31675;DHT22;18276;45.520;11.018;2022-11-18T17:46:38;11.20;99.90
31675;DHT22;18276;45.520;11.018;2022-11-18T17:49:16;11.10;99.90
31675;DHT22;18276;45.520;11.018;2022-11-18T17:51:44;11.10;99.90
31675;DHT22;18276;45.520;11.018;2022-11-18T17:54:13;11.00;99.90
31675;DHT22;18276;45.520;11.018;2022-11-18T17:56:41;11.00;99.90